WXM80 ListenWXM80 Stop

You find our weather info also at:

UK Metoffice

WeatherCloud

Weather Underground

Northeastern Weather Network

AWEKAS

Citizen Weather Observer Program (CWOP)

HAMweather, WeatherForYou, PWS Weather


Weather Underground History page Text

Daily Summary for December 6, 2016 Units:  English    Metric   Both
« Previous Day
Next Day »
Daily Weekly Monthly Yearly Custom
  High: Low: Average:
Temperature: 45.7 °F 39.9 °F 42.8 °F
Dew Point: 40.8 °F 32.7 °F 35.6 °F
Humidity: 93 % 65 % 76 %
Wind Speed: 10.3 mph 0.4 mph 4.3 mph
Wind Gust: 15.0 mph - -
Wind:- - SE
Pressure: 30.13 in 29.83 in -
Precipitation: 0.00 in    
Historical Graphs
 
 
Tabular Data for December 6, 2016
Time Temperature Dew Point Pressure Wind Wind Speed Wind Gust Humidity Rainfall Rate (Hourly)
00:02 42.6 °F 33.1 °F 30.07 in WSW 2.2 mph 4.0 mph 69 % 0.00 in
00:07 42.5 °F 33.0 °F 30.07 in WNW 6.6 mph 11.5 mph 69 % 0.00 in
00:12 42.5 °F 32.7 °F 30.07 in NW 6.3 mph 10.4 mph 68 % 0.00 in
00:17 42.6 °F 33.1 °F 30.07 in NW 1.6 mph 4.6 mph 69 % 0.00 in
00:22 42.6 °F 33.1 °F 30.06 in WSW 1.9 mph 4.6 mph 69 % 0.00 in
00:27 42.6 °F 32.8 °F 30.06 in West 2.0 mph 4.6 mph 68 % 0.00 in
00:33 42.6 °F 33.1 °F 30.06 in NW 0.6 mph 4.6 mph 69 % 0.00 in
00:38 42.5 °F 33.0 °F 30.06 in West 1.0 mph 8.1 mph 69 % 0.00 in
00:43 42.4 °F 32.9 °F 30.06 in West 3.5 mph 6.9 mph 69 % 0.00 in
00:48 42.4 °F 32.9 °F 30.06 in WNW 1.7 mph 5.8 mph 69 % 0.00 in
00:53 42.4 °F 33.3 °F 30.06 in WNW 2.9 mph 5.8 mph 70 % 0.00 in
00:58 42.4 °F 33.3 °F 30.07 in WNW 5.2 mph 11.5 mph 70 % 0.00 in
01:03 42.3 °F 33.2 °F 30.06 in NW 4.0 mph 6.9 mph 70 % 0.00 in
01:08 42.4 °F 33.3 °F 30.07 in North 6.0 mph 10.4 mph 70 % 0.00 in
01:13 42.4 °F 33.3 °F 30.07 in North 4.4 mph 10.4 mph 70 % 0.00 in
01:18 42.4 °F 33.3 °F 30.07 in NW 4.4 mph 11.5 mph 70 % 0.00 in
01:24 42.4 °F 33.3 °F 30.07 in WNW 7.2 mph 12.0 mph 70 % 0.00 in
01:29 42.4 °F 32.9 °F 30.08 in WNW 5.3 mph 11.5 mph 69 % 0.00 in
01:34 42.4 °F 33.3 °F 30.08 in WNW 5.3 mph 10.4 mph 70 % 0.00 in
01:39 42.4 °F 33.3 °F 30.08 in West 2.9 mph 6.9 mph 70 % 0.00 in
01:44 42.4 °F 33.3 °F 30.08 in WNW 4.8 mph 8.1 mph 70 % 0.00 in
01:49 42.3 °F 33.2 °F 30.08 in NW 3.8 mph 9.2 mph 70 % 0.00 in
01:54 42.3 °F 33.2 °F 30.08 in NW 4.0 mph 5.0 mph 70 % 0.00 in
01:59 42.2 °F 33.1 °F 30.08 in NW 5.5 mph 7.0 mph 70 % 0.00 in
02:04 42.1 °F 33.4 °F 30.09 in WNW 2.1 mph 3.5 mph 71 % 0.00 in
02:09 42.1 °F 33.4 °F 30.09 in West 3.9 mph 5.8 mph 71 % 0.00 in
02:15 42.0 °F 33.3 °F 30.08 in NW 3.1 mph 4.0 mph 71 % 0.00 in
02:20 41.9 °F 33.5 °F 30.08 in WNW 2.0 mph 6.0 mph 72 % 0.00 in
02:25 41.8 °F 33.8 °F 30.08 in WNW 3.0 mph 8.0 mph 73 % 0.00 in
02:30 41.8 °F 33.8 °F 30.08 in NW 5.0 mph 9.0 mph 73 % 0.00 in
02:35 41.8 °F 33.8 °F 30.08 in NNW 3.0 mph 12.0 mph 73 % 0.00 in
02:40 41.8 °F 34.1 °F 30.08 in NW 6.0 mph 10.0 mph 74 % 0.00 in
02:45 41.9 °F 33.5 °F 30.08 in NW 3.0 mph 10.0 mph 72 % 0.00 in
02:50 41.9 °F 33.6 °F 30.08 in NW 3.0 mph 6.0 mph 72 % 0.00 in
02:55 42.0 °F 34.0 °F 30.08 in NW 5.0 mph 10.0 mph 73 % 0.00 in
03:00 42.0 °F 33.6 °F 30.08 in NNW 4.6 mph 8.1 mph 72 % 0.00 in
03:05 42.0 °F 33.6 °F 30.08 in NW 3.7 mph 6.9 mph 72 % 0.00 in
03:10 41.9 °F 33.5 °F 30.08 in West 1.6 mph 5.8 mph 72 % 0.00 in
03:15 41.9 °F 33.9 °F 30.08 in NW 1.4 mph 4.6 mph 73 % 0.00 in
03:20 41.8 °F 34.1 °F 30.08 in NW 1.6 mph 4.6 mph 74 % 0.00 in
03:25 41.8 °F 33.8 °F 30.08 in NW 4.0 mph 10.4 mph 73 % 0.00 in
03:31 41.7 °F 33.7 °F 30.09 in North 3.3 mph 3.5 mph 73 % 0.00 in
03:36 41.6 °F 33.6 °F 30.09 in NNW 4.0 mph 9.2 mph 73 % 0.00 in
03:41 41.5 °F 33.5 °F 30.09 in WNW 3.8 mph 8.1 mph 73 % 0.00 in
03:46 41.5 °F 33.8 °F 30.09 in NNW 3.7 mph 10.4 mph 74 % 0.00 in
03:51 41.4 °F 33.4 °F 30.09 in West 5.1 mph 10.4 mph 73 % 0.00 in
03:56 41.4 °F 33.4 °F 30.09 in NNW 3.5 mph 8.1 mph 73 % 0.00 in
04:01 41.3 °F 33.3 °F 30.09 in NNW 2.8 mph 5.0 mph 73 % 0.00 in
04:06 41.4 °F 33.4 °F 30.09 in West 2.5 mph 4.6 mph 73 % 0.00 in
04:11 41.3 °F 33.6 °F 30.10 in NW 3.1 mph 5.0 mph 74 % 0.00 in
04:16 41.3 °F 33.6 °F 30.10 in WNW 1.5 mph 5.8 mph 74 % 0.00 in
04:22 41.3 °F 33.6 °F 30.09 in NNW 3.2 mph 6.0 mph 74 % 0.00 in
04:27 41.3 °F 33.6 °F 30.09 in North 4.7 mph 6.9 mph 74 % 0.00 in
04:32 41.3 °F 34.0 °F 30.09 in NNW 3.5 mph 4.6 mph 75 % 0.00 in
04:37 41.3 °F 33.6 °F 30.09 in NW 3.8 mph 5.8 mph 74 % 0.00 in
04:42 41.3 °F 33.6 °F 30.09 in NNW 2.3 mph 6.9 mph 74 % 0.00 in
04:47 41.2 °F 33.5 °F 30.09 in NNW 3.4 mph 6.9 mph 74 % 0.00 in
04:52 41.2 °F 33.5 °F 30.09 in NNW 3.8 mph 5.8 mph 74 % 0.00 in
04:57 41.1 °F 33.8 °F 30.09 in NW 3.3 mph 4.6 mph 75 % 0.00 in
05:02 41.1 °F 33.8 °F 30.08 in North 3.8 mph 4.0 mph 75 % 0.00 in
05:07 41.1 °F 34.1 °F 30.10 in North 3.0 mph 3.5 mph 76 % 0.00 in
05:13 41.1 °F 33.8 °F 30.09 in North 2.5 mph 3.5 mph 75 % 0.00 in
05:18 41.0 °F 34.0 °F 30.09 in North 5.2 mph 5.8 mph 76 % 0.00 in
05:23 41.0 °F 34.0 °F 30.09 in NNE 3.5 mph 6.9 mph 76 % 0.00 in
05:28 41.0 °F 34.3 °F 30.10 in North 4.1 mph 6.9 mph 77 % 0.00 in
05:33 40.9 °F 33.9 °F 30.10 in North 4.1 mph 6.9 mph 76 % 0.00 in
05:38 40.9 °F 33.9 °F 30.10 in NNE 3.8 mph 5.0 mph 76 % 0.00 in
05:43 40.9 °F 33.9 °F 30.10 in North 3.6 mph 5.8 mph 76 % 0.00 in
05:48 40.8 °F 33.8 °F 30.10 in NNE 2.9 mph 4.0 mph 76 % 0.00 in
05:53 40.8 °F 33.8 °F 30.10 in North 2.7 mph 4.6 mph 76 % 0.00 in
05:58 40.7 °F 34.0 °F 30.10 in NNW 2.2 mph 4.0 mph 77 % 0.00 in
06:04 40.7 °F 34.0 °F 30.11 in NNE 1.8 mph 3.5 mph 77 % 0.00 in
06:09 40.6 °F 34.0 °F 30.10 in NNW 2.5 mph 4.0 mph 77 % 0.00 in
06:14 40.5 °F 33.9 °F 30.10 in North 2.0 mph 3.5 mph 77 % 0.00 in
06:32 40.3 °F 33.7 °F 30.10 in North 1.4 mph 3.5 mph 77 % 0.00 in
06:33 40.2 °F 33.6 °F 30.10 in NNE 2.1 mph 3.5 mph 77 % 0.00 in
06:34 40.3 °F 33.7 °F 30.10 in NNE 2.1 mph 3.5 mph 77 % 0.00 in
06:35 40.2 °F 33.6 °F 30.10 in NNE 3.6 mph 5.8 mph 77 % 0.00 in
06:40 40.2 °F 33.2 °F 30.10 in NE 2.3 mph 4.0 mph 76 % 0.00 in
06:42 40.2 °F 33.2 °F 30.10 in North 2.8 mph 3.5 mph 76 % 0.00 in
06:43 40.2 °F 33.2 °F 30.10 in North 3.9 mph 4.6 mph 76 % 0.00 in
06:48 40.2 °F 33.2 °F 30.10 in North 1.6 mph 3.5 mph 76 % 0.00 in
06:53 40.2 °F 33.6 °F 30.10 in NNW 2.9 mph 4.0 mph 77 % 0.00 in
06:58 40.1 °F 33.1 °F 30.10 in North 1.3 mph 2.3 mph 76 % 0.00 in
07:03 40.1 °F 33.5 °F 30.10 in North 1.6 mph 3.0 mph 77 % 0.00 in
07:08 40.1 °F 33.1 °F 30.10 in NNE 2.0 mph 3.5 mph 76 % 0.00 in
07:13 40.1 °F 33.1 °F 30.11 in North 0.4 mph 2.3 mph 76 % 0.00 in
07:18 40.1 °F 33.1 °F 30.10 in NNE 1.2 mph 3.5 mph 76 % 0.00 in
07:23 40.0 °F 33.0 °F 30.10 in NNE 2.6 mph 4.6 mph 76 % 0.00 in
07:29 40.0 °F 33.0 °F 30.10 in North 1.6 mph 2.3 mph 76 % 0.00 in
07:34 40.0 °F 33.0 °F 30.11 in North 2.1 mph 3.5 mph 76 % 0.00 in
07:44 39.9 °F 32.9 °F 30.10 in NNW 0.7 mph 3.5 mph 76 % 0.00 in
07:49 40.0 °F 33.0 °F 30.11 in North 4.5 mph 6.9 mph 76 % 0.00 in
07:54 40.0 °F 33.0 °F 30.10 in North 1.8 mph 3.5 mph 76 % 0.00 in
07:59 40.1 °F 33.1 °F 30.11 in North 1.9 mph 3.5 mph 76 % 0.00 in
08:04 40.2 °F 33.2 °F 30.10 in NNE 3.0 mph 4.6 mph 76 % 0.00 in
08:09 40.2 °F 33.2 °F 30.10 in North 2.0 mph 3.5 mph 76 % 0.00 in
08:14 40.4 °F 33.1 °F 30.11 in North 0.8 mph 3.5 mph 75 % 0.00 in
08:20 40.5 °F 33.5 °F 30.11 in North 2.6 mph 4.0 mph 76 % 0.00 in
08:25 40.7 °F 33.4 °F 30.11 in North 1.0 mph 5.0 mph 75 % 0.00 in
08:30 40.8 °F 33.8 °F 30.12 in North 1.0 mph 3.0 mph 76 % 0.00 in
08:35 41.0 °F 34.3 °F 30.12 in NNE 3.0 mph 5.0 mph 77 % 0.00 in
08:40 41.3 °F 34.3 °F 30.12 in NNE 5.0 mph 6.0 mph 76 % 0.00 in
08:45 41.5 °F 34.2 °F 30.12 in North 3.0 mph 8.0 mph 75 % 0.00 in
08:50 41.7 °F 34.3 °F 30.12 in North 1.0 mph 4.0 mph 75 % 0.00 in
08:55 41.8 °F 34.5 °F 30.12 in North 3.0 mph 5.0 mph 75 % 0.00 in
09:00 42.0 °F 34.3 °F 30.12 in North 2.4 mph 5.0 mph 74 % 0.00 in
09:05 42.2 °F 34.8 °F 30.13 in NNE 2.0 mph 6.0 mph 75 % 0.00 in
09:10 42.4 °F 34.7 °F 30.13 in NNE 3.0 mph 6.0 mph 74 % 0.00 in
09:15 42.6 °F 34.9 °F 30.13 in NNE 3.0 mph 6.0 mph 74 % 0.00 in
09:20 42.8 °F 35.1 °F 30.13 in NNE 2.0 mph 7.0 mph 74 % 0.00 in
09:25 42.9 °F 34.8 °F 30.13 in North 5.0 mph 6.0 mph 73 % 0.00 in
09:30 43.1 °F 35.1 °F 30.13 in NNE 2.0 mph 6.0 mph 73 % 0.00 in
09:35 43.4 °F 35.4 °F 30.13 in NNE 5.0 mph 8.0 mph 73 % 0.00 in
09:40 43.7 °F 35.3 °F 30.13 in NNE 5.0 mph 8.0 mph 72 % 0.00 in
09:45 43.9 °F 35.1 °F 30.13 in NNE 3.0 mph 8.0 mph 71 % 0.00 in
09:50 44.1 °F 35.6 °F 30.13 in NNE 3.0 mph 6.0 mph 72 % 0.00 in
09:55 44.3 °F 35.8 °F 30.12 in NNE 3.3 mph 8.1 mph 72 % 0.00 in
10:00 44.4 °F 35.6 °F 30.12 in NE 6.5 mph 9.2 mph 71 % 0.00 in
10:05 44.5 °F 35.7 °F 30.12 in NNE 3.5 mph 5.0 mph 71 % 0.00 in
10:10 44.7 °F 35.9 °F 30.11 in NNE 3.7 mph 6.0 mph 71 % 0.00 in
10:15 44.8 °F 36.0 °F 30.11 in NE 3.2 mph 6.9 mph 71 % 0.00 in
10:20 45.1 °F 36.6 °F 30.11 in NNE 4.0 mph 8.1 mph 72 % 0.00 in
10:25 45.2 °F 36.4 °F 30.11 in NNE 5.5 mph 10.4 mph 71 % 0.00 in
10:30 45.4 °F 36.5 °F 30.10 in NE 3.1 mph 6.9 mph 71 % 0.00 in
10:35 45.6 °F 36.7 °F 30.10 in NNE 3.6 mph 5.8 mph 71 % 0.00 in
10:41 45.7 °F 36.8 °F 30.09 in ENE 3.7 mph 6.9 mph 71 % 0.00 in
10:46 45.7 °F 36.8 °F 30.09 in ENE 4.2 mph 8.1 mph 71 % 0.00 in
10:51 45.5 °F 36.3 °F 30.09 in ENE 5.7 mph 7.0 mph 70 % 0.00 in
10:56 45.2 °F 36.4 °F 30.09 in ENE 2.4 mph 4.6 mph 71 % 0.00 in
11:01 45.1 °F 36.3 °F 30.08 in East 2.7 mph 5.0 mph 71 % 0.00 in
11:06 45.2 °F 36.7 °F 30.08 in East 4.3 mph 5.8 mph 72 % 0.00 in
11:11 45.2 °F 36.7 °F 30.07 in East 3.5 mph 5.0 mph 72 % 0.00 in
11:16 45.2 °F 36.7 °F 30.07 in ENE 2.5 mph 3.5 mph 72 % 0.00 in
11:21 45.2 °F 36.7 °F 30.07 in ENE 3.1 mph 3.5 mph 72 % 0.00 in
11:26 45.1 °F 36.3 °F 30.07 in East 2.1 mph 5.8 mph 71 % 0.00 in
11:32 45.1 °F 36.6 °F 30.07 in East 2.5 mph 5.0 mph 72 % 0.00 in
11:37 45.1 °F 36.6 °F 30.06 in ENE 2.6 mph 3.5 mph 72 % 0.00 in
11:42 45.1 °F 36.6 °F 30.05 in East 2.6 mph 5.0 mph 72 % 0.00 in
11:47 45.1 °F 36.6 °F 30.05 in ENE 4.3 mph 8.1 mph 72 % 0.00 in
11:52 45.1 °F 36.6 °F 30.04 in East 4.5 mph 7.0 mph 72 % 0.00 in
11:57 45.1 °F 36.6 °F 30.04 in East 6.0 mph 9.0 mph 72 % 0.00 in
12:02 45.1 °F 35.5 °F 30.05 in ENE 4.8 mph 8.1 mph 69 % 0.00 in
12:07 45.1 °F 35.9 °F 30.05 in East 2.8 mph 5.0 mph 70 % 0.00 in
12:12 45.1 °F 35.2 °F 30.05 in ENE 4.7 mph 5.8 mph 68 % 0.00 in
12:17 45.2 °F 35.6 °F 30.05 in NE 3.9 mph 6.0 mph 69 % 0.00 in
12:22 45.2 °F 35.3 °F 30.05 in ENE 4.8 mph 6.9 mph 68 % 0.00 in
12:27 45.4 °F 35.8 °F 30.05 in ENE 3.3 mph 5.8 mph 69 % 0.00 in
12:33 45.6 °F 35.6 °F 30.04 in NE 6.0 mph 6.0 mph 68 % 0.00 in
12:38 45.6 °F 35.6 °F 30.04 in ENE 4.9 mph 7.0 mph 68 % 0.00 in
12:43 45.6 °F 36.0 °F 30.03 in ENE 4.8 mph 7.0 mph 69 % 0.00 in
12:48 45.5 °F 35.9 °F 30.04 in NE 4.3 mph 8.1 mph 69 % 0.00 in
12:53 45.6 °F 36.0 °F 30.03 in ENE 3.9 mph 6.9 mph 69 % 0.00 in
12:58 45.7 °F 36.1 °F 30.03 in ENE 3.5 mph 8.1 mph 69 % 0.00 in
13:03 45.7 °F 35.7 °F 30.03 in ENE 7.3 mph 9.2 mph 68 % 0.00 in
13:08 45.7 °F 36.1 °F 30.02 in East 4.3 mph 9.2 mph 69 % 0.00 in
13:13 45.6 °F 36.0 °F 30.02 in ENE 5.9 mph 8.1 mph 69 % 0.00 in
13:19 45.6 °F 36.4 °F 30.01 in East 5.9 mph 8.1 mph 70 % 0.00 in
13:24 45.5 °F 35.9 °F 30.00 in East 4.8 mph 9.2 mph 69 % 0.00 in
13:29 45.5 °F 36.3 °F 30.00 in East 3.8 mph 8.1 mph 70 % 0.00 in
13:34 45.6 °F 36.7 °F 30.01 in ENE 4.5 mph 6.9 mph 71 % 0.00 in
13:39 45.5 °F 36.3 °F 30.01 in ENE 6.4 mph 9.2 mph 70 % 0.00 in
13:44 45.4 °F 36.9 °F 30.00 in NE 4.9 mph 6.9 mph 72 % 0.00 in
13:49 45.4 °F 36.9 °F 30.00 in ENE 5.4 mph 9.2 mph 72 % 0.00 in
13:54 45.4 °F 37.2 °F 29.99 in ENE 5.5 mph 6.9 mph 73 % 0.00 in
13:59 45.3 °F 37.2 °F 30.00 in ENE 5.7 mph 6.9 mph 73 % 0.00 in
14:04 45.2 °F 36.7 °F 29.99 in East 5.1 mph 8.1 mph 72 % 0.00 in
14:09 45.1 °F 36.6 °F 29.99 in NE 5.9 mph 8.1 mph 72 % 0.00 in
14:14 45.0 °F 36.5 °F 29.98 in East 5.9 mph 8.1 mph 72 % 0.00 in
14:20 45.0 °F 36.2 °F 29.97 in ENE 6.7 mph 9.2 mph 71 % 0.00 in
14:25 44.9 °F 35.7 °F 29.97 in ENE 6.0 mph 9.0 mph 70 % 0.00 in
14:30 44.9 °F 36.1 °F 29.97 in ENE 6.0 mph 10.0 mph 71 % 0.00 in
14:35 44.9 °F 36.4 °F 29.97 in ENE 5.0 mph 7.0 mph 72 % 0.00 in
14:40 44.9 °F 35.7 °F 29.97 in ENE 6.0 mph 9.0 mph 70 % 0.00 in
14:45 44.9 °F 35.7 °F 29.97 in ENE 3.0 mph 9.0 mph 70 % 0.00 in
14:50 44.9 °F 35.7 °F 29.97 in East 6.0 mph 8.0 mph 70 % 0.00 in
14:55 44.9 °F 36.1 °F 29.97 in East 3.0 mph 7.0 mph 71 % 0.00 in
15:00 44.9 °F 36.1 °F 29.97 in East 6.3 mph 8.0 mph 71 % 0.00 in
15:05 44.8 °F 36.0 °F 29.97 in East 6.0 mph 10.0 mph 71 % 0.00 in
15:10 44.8 °F 35.6 °F 29.97 in East 3.0 mph 6.9 mph 70 % 0.00 in
15:15 44.7 °F 35.5 °F 29.97 in East 4.0 mph 5.8 mph 70 % 0.00 in
15:20 44.7 °F 35.5 °F 29.97 in East 2.5 mph 5.8 mph 70 % 0.00 in
15:25 44.7 °F 35.5 °F 29.96 in East 3.7 mph 6.9 mph 70 % 0.00 in
15:30 44.7 °F 35.9 °F 29.96 in East 4.7 mph 5.8 mph 71 % 0.00 in
15:35 44.7 °F 35.1 °F 29.95 in East 1.9 mph 3.5 mph 69 % 0.00 in
15:40 44.6 °F 34.3 °F 29.95 in East 3.1 mph 4.6 mph 67 % 0.00 in
15:45 44.6 °F 34.3 °F 29.95 in East 0.6 mph 2.3 mph 67 % 0.00 in
15:50 44.5 °F 33.8 °F 29.95 in East 1.8 mph 3.5 mph 66 % 0.00 in
15:56 44.5 °F 33.5 °F 29.95 in East 1.1 mph 2.0 mph 65 % 0.00 in
16:01 44.4 °F 33.4 °F 29.95 in East 2.3 mph 4.6 mph 65 % 0.00 in
16:06 44.4 °F 33.7 °F 29.94 in East 1.6 mph 4.6 mph 66 % 0.00 in
16:11 44.3 °F 34.0 °F 29.94 in East 3.1 mph 4.6 mph 67 % 0.00 in
16:16 44.2 °F 33.9 °F 29.94 in ESE 2.3 mph 3.5 mph 67 % 0.00 in
16:21 44.2 °F 33.6 °F 29.94 in East 1.9 mph 5.8 mph 66 % 0.00 in
16:26 44.1 °F 33.8 °F 29.94 in East 2.8 mph 4.6 mph 67 % 0.00 in
16:31 44.1 °F 33.8 °F 29.94 in East 2.3 mph 3.5 mph 67 % 0.00 in
16:36 44.0 °F 34.1 °F 29.94 in East 2.0 mph 4.6 mph 68 % 0.00 in
16:41 44.0 °F 33.7 °F 29.94 in East 5.3 mph 6.9 mph 67 % 0.00 in
16:47 44.0 °F 34.1 °F 29.94 in SSE 0.9 mph 6.9 mph 68 % 0.00 in
16:52 43.9 °F 34.0 °F 29.94 in East 3.7 mph 5.0 mph 68 % 0.00 in
16:57 43.9 °F 34.0 °F 29.94 in East 3.5 mph 4.6 mph 68 % 0.00 in
17:02 43.8 °F 34.3 °F 29.95 in East 3.0 mph 5.0 mph 69 % 0.00 in
17:07 43.8 °F 34.3 °F 29.95 in East 2.2 mph 3.5 mph 69 % 0.00 in
17:12 43.8 °F 34.6 °F 29.95 in East 2.4 mph 3.5 mph 70 % 0.00 in
17:17 43.8 °F 35.0 °F 29.95 in East 3.9 mph 5.0 mph 71 % 0.00 in
17:22 43.7 °F 34.9 °F 29.96 in East 3.1 mph 6.9 mph 71 % 0.00 in
17:27 43.7 °F 35.3 °F 29.95 in East 3.6 mph 5.0 mph 72 % 0.00 in
17:32 43.6 °F 35.9 °F 29.94 in East 4.5 mph 5.0 mph 74 % 0.00 in
17:38 43.6 °F 35.9 °F 29.95 in East 5.4 mph 6.0 mph 74 % 0.00 in
17:43 43.6 °F 35.9 °F 29.95 in NE 3.0 mph 5.8 mph 74 % 0.00 in
17:48 43.6 °F 35.9 °F 29.95 in East 4.4 mph 8.1 mph 74 % 0.00 in
17:53 43.5 °F 35.8 °F 29.95 in East 2.0 mph 4.6 mph 74 % 0.00 in
17:58 43.5 °F 35.8 °F 29.95 in East 4.9 mph 5.8 mph 74 % 0.00 in
18:03 43.5 °F 35.8 °F 29.95 in East 3.6 mph 6.9 mph 74 % 0.00 in
18:08 43.5 °F 35.8 °F 29.95 in East 3.4 mph 6.9 mph 74 % 0.00 in
18:13 43.5 °F 35.8 °F 29.95 in East 5.7 mph 7.0 mph 74 % 0.00 in
18:18 43.5 °F 35.8 °F 29.94 in East 6.3 mph 8.1 mph 74 % 0.00 in
18:23 43.5 °F 35.8 °F 29.94 in East 4.2 mph 4.6 mph 74 % 0.00 in
18:29 43.5 °F 36.1 °F 29.94 in East 4.0 mph 6.9 mph 75 % 0.00 in
18:34 43.5 °F 36.1 °F 29.94 in East 4.4 mph 8.1 mph 75 % 0.00 in
18:39 43.5 °F 36.1 °F 29.94 in East 6.3 mph 9.2 mph 75 % 0.00 in
18:44 43.5 °F 36.4 °F 29.94 in East 7.0 mph 9.2 mph 76 % 0.00 in
18:49 43.6 °F 36.5 °F 29.95 in East 5.1 mph 6.9 mph 76 % 0.00 in
18:54 43.6 °F 36.5 °F 29.95 in East 3.7 mph 6.0 mph 76 % 0.00 in
18:59 43.6 °F 36.9 °F 29.96 in East 4.8 mph 7.0 mph 77 % 0.00 in
19:04 43.5 °F 37.1 °F 29.96 in East 3.2 mph 5.8 mph 78 % 0.00 in
19:09 43.5 °F 37.4 °F 29.97 in NE 1.4 mph 2.3 mph 79 % 0.00 in
19:14 43.3 °F 37.5 °F 29.97 in East 4.1 mph 6.0 mph 80 % 0.00 in
19:20 43.3 °F 37.5 °F 29.97 in East 2.0 mph 5.0 mph 80 % 0.00 in
19:25 43.2 °F 37.7 °F 29.96 in East 3.0 mph 6.0 mph 81 % 0.00 in
19:30 43.1 °F 37.9 °F 29.95 in East 2.0 mph 6.0 mph 82 % 0.00 in
19:35 42.9 °F 38.1 °F 29.94 in East 3.0 mph 6.0 mph 83 % 0.00 in
19:40 42.9 °F 38.4 °F 29.94 in East 3.0 mph 6.0 mph 84 % 0.00 in
19:45 42.8 °F 38.6 °F 29.93 in East 3.0 mph 7.0 mph 85 % 0.00 in
19:50 42.7 °F 38.8 °F 29.93 in East 3.0 mph 8.0 mph 86 % 0.00 in
19:55 42.6 °F 39.0 °F 29.92 in ENE 7.0 mph 12.0 mph 87 % 0.00 in
20:00 42.4 °F 39.1 °F 29.92 in ENE 6.4 mph 8.1 mph 88 % 0.04 in
20:05 42.4 °F 39.1 °F 29.92 in ENE 6.2 mph 10.4 mph 88 % 0.04 in
20:10 42.3 °F 39.3 °F 29.92 in East 5.4 mph 8.1 mph 89 % 0.05 in
20:15 42.3 °F 39.6 °F 29.92 in East 6.3 mph 10.4 mph 90 % 0.05 in
20:20 42.2 °F 39.5 °F 29.91 in ENE 8.7 mph 11.5 mph 90 % 0.05 in
20:25 42.2 °F 39.5 °F 29.91 in East 5.5 mph 8.0 mph 90 % 0.06 in
20:30 42.2 °F 39.5 °F 29.91 in ENE 6.3 mph 9.2 mph 90 % 0.06 in
20:35 42.3 °F 39.9 °F 29.91 in ENE 6.3 mph 12.7 mph 91 % 0.06 in
20:40 42.4 °F 40.0 °F 29.90 in East 7.4 mph 9.2 mph 91 % 0.06 in
20:46 42.4 °F 40.0 °F 29.90 in ENE 10.2 mph 13.0 mph 91 % 0.05 in
20:51 42.4 °F 40.0 °F 29.90 in ENE 7.5 mph 10.4 mph 91 % 0.03 in
20:56 42.5 °F 40.1 °F 29.89 in East 8.6 mph 12.7 mph 91 % 0.03 in
21:01 42.6 °F 40.4 °F 29.89 in East 8.1 mph 11.5 mph 92 % 0.04 in
21:06 42.7 °F 40.5 °F 29.89 in East 8.2 mph 10.4 mph 92 % 0.05 in
21:11 42.6 °F 40.4 °F 29.90 in ENE 8.3 mph 10.4 mph 92 % 0.05 in
21:16 42.7 °F 40.8 °F 29.89 in East 9.2 mph 15.0 mph 93 % 0.06 in
21:21 42.7 °F 40.8 °F 29.90 in East 7.0 mph 11.5 mph 93 % 0.05 in
21:26 42.7 °F 40.8 °F 29.90 in East 9.0 mph 10.4 mph 93 % 0.05 in
21:31 42.5 °F 40.6 °F 29.91 in East 10.2 mph 14.0 mph 93 % 0.06 in
21:37 42.5 °F 40.6 °F 29.91 in ENE 8.0 mph 11.5 mph 93 % 0.06 in
21:42 42.4 °F 40.5 °F 29.91 in ESE 6.6 mph 9.2 mph 93 % 0.07 in
21:47 42.4 °F 40.5 °F 29.91 in East 9.9 mph 13.8 mph 93 % 0.07 in
21:52 42.4 °F 40.5 °F 29.90 in East 5.5 mph 10.4 mph 93 % 0.08 in
21:57 42.4 °F 40.5 °F 29.90 in East 8.6 mph 12.7 mph 93 % 0.08 in
22:02 42.4 °F 40.5 °F 29.90 in East 7.5 mph 9.2 mph 93 % 0.06 in
22:07 42.3 °F 40.4 °F 29.90 in East 5.8 mph 8.1 mph 93 % 0.07 in
22:12 42.2 °F 40.3 °F 29.89 in East 8.2 mph 10.4 mph 93 % 0.07 in
22:17 42.0 °F 40.1 °F 29.88 in East 7.6 mph 9.2 mph 93 % 0.06 in
22:22 41.9 °F 40.0 °F 29.88 in East 8.2 mph 13.8 mph 93 % 0.07 in
22:28 41.8 °F 39.9 °F 29.87 in East 8.0 mph 11.5 mph 93 % 0.07 in
22:33 41.7 °F 39.8 °F 29.86 in ESE 8.7 mph 15.0 mph 93 % 0.07 in
22:38 41.6 °F 39.7 °F 29.86 in East 9.2 mph 15.0 mph 93 % 0.07 in
22:43 41.4 °F 39.5 °F 29.85 in East 10.3 mph 12.7 mph 93 % 0.06 in
22:48 41.4 °F 39.5 °F 29.85 in East 8.8 mph 13.8 mph 93 % 0.06 in
22:53 41.3 °F 39.4 °F 29.86 in East 9.2 mph 12.7 mph 93 % 0.06 in
22:58 41.3 °F 39.4 °F 29.86 in East 9.5 mph 13.8 mph 93 % 0.05 in
23:03 41.2 °F 39.3 °F 29.86 in ESE 9.9 mph 12.7 mph 93 % 0.05 in
23:08 41.2 °F 39.3 °F 29.86 in East 6.7 mph 10.4 mph 93 % 0.04 in
23:13 41.2 °F 39.3 °F 29.85 in East 8.7 mph 11.5 mph 93 % 0.03 in
23:19 41.1 °F 39.2 °F 29.85 in East 9.2 mph 12.7 mph 93 % 0.02 in
23:24 41.1 °F 39.2 °F 29.84 in ENE 6.9 mph 13.8 mph 93 % 0.02 in
23:29 41.2 °F 39.3 °F 29.84 in ENE 5.8 mph 9.2 mph 93 % 0.01 in
23:34 41.1 °F 39.2 °F 29.84 in East 6.8 mph 9.2 mph 93 % 0.01 in
23:39 41.1 °F 39.2 °F 29.84 in East 8.4 mph 12.7 mph 93 % 0.01 in
23:44 41.1 °F 39.2 °F 29.85 in East 8.0 mph 11.5 mph 93 % 0.01 in
23:49 41.1 °F 39.2 °F 29.85 in East 8.9 mph 11.5 mph 93 % 0.00 in
23:54 41.0 °F 39.1 °F 29.85 in East 7.8 mph 10.4 mph 93 % 0.00 in
23:59 41.0 °F 39.1 °F 29.83 in ESE 9.6 mph 13.0 mph 93 % 0.00 in
Crab Meadow Weather
Compliments of Weather Underground - 3 mb

Script developed by  Jim McMurry - jmcmurry@mwt.net Adapted for the template by  Wim van der Kuil - Leuven-Template.eu

Extremes: The greatest annual rainfall in the United States was 184.56 inches at Wynooches, Oxbow, Washington in 1931.